createdAt,value
2022-10-31T00:01:26.846Z,17.77
2022-10-31T00:03:54.028Z,17.76
2022-10-31T00:06:22.516Z,17.73
2022-10-31T00:09:02.547Z,17.66
2022-10-31T00:11:30.219Z,17.64
2022-10-31T00:14:00.153Z,17.61
2022-10-31T00:16:27.535Z,17.58
2022-10-31T00:19:00.207Z,17.59
2022-10-31T00:21:27.799Z,17.65
2022-10-31T00:23:54.987Z,17.67
2022-10-31T00:26:22.271Z,17.66
2022-10-31T00:28:49.725Z,17.57
2022-10-31T00:31:17.045Z,17.55
2022-10-31T00:33:45.078Z,17.54
2022-10-31T00:36:15.174Z,17.53
2022-10-31T00:38:43.582Z,17.46
2022-10-31T00:41:12.305Z,17.40
2022-10-31T00:43:42.151Z,17.34
2022-10-31T00:46:10.339Z,17.31
2022-10-31T00:48:37.548Z,17.29
2022-10-31T00:51:05.860Z,17.30
2022-10-31T00:53:33.324Z,17.25
2022-10-31T00:56:00.632Z,17.22
2022-10-31T00:58:27.815Z,17.24
2022-10-31T01:00:58.412Z,17.25
2022-10-31T01:03:27.909Z,17.22
2022-10-31T01:06:03.277Z,17.19
2022-10-31T01:08:33.652Z,17.17
2022-10-31T01:11:24.181Z,17.15
2022-10-31T01:13:53.630Z,17.09
2022-10-31T01:16:23.488Z,17.07
2022-10-31T01:18:51.861Z,17.04
2022-10-31T01:21:25.204Z,17.07
2022-10-31T01:23:55.295Z,17.10
2022-10-31T01:26:25.225Z,17.09
2022-10-31T01:29:07.180Z,17.06
2022-10-31T01:31:38.728Z,17.07
2022-10-31T01:34:06.540Z,17.04
2022-10-31T01:36:38.885Z,17.01
2022-10-31T01:39:09.052Z,16.99
2022-10-31T01:41:39.631Z,16.99
2022-10-31T01:44:14.656Z,16.96
2022-10-31T01:46:44.733Z,16.97
2022-10-31T01:49:35.548Z,16.94
2022-10-31T01:52:11.060Z,16.95
2022-10-31T01:54:44.516Z,16.96
2022-10-31T01:57:15.874Z,16.94
2022-10-31T01:59:48.669Z,16.92
2022-10-31T02:02:17.364Z,16.88
2022-10-31T02:04:48.680Z,16.85
2022-10-31T02:07:28.884Z,16.84
2022-10-31T02:10:01.666Z,16.81
2022-10-31T02:12:31.370Z,16.82
2022-10-31T02:15:01.647Z,16.79
2022-10-31T02:17:31.165Z,16.81
2022-10-31T02:20:11.407Z,16.83
2022-10-31T02:22:55.339Z,16.82
2022-10-31T02:25:26.396Z,16.80
2022-10-31T02:28:29.124Z,16.78
2022-10-31T02:31:14.913Z,16.74
2022-10-31T02:33:56.125Z,16.73
2022-10-31T02:36:59.245Z,16.74
2022-10-31T02:39:31.196Z,16.74
2022-10-31T02:42:16.114Z,16.71
2022-10-31T02:44:52.770Z,16.67
2022-10-31T02:47:26.985Z,16.64
2022-10-31T02:50:19.131Z,16.63
2022-10-31T02:52:52.945Z,16.64
2022-10-31T02:55:26.060Z,16.64
2022-10-31T02:58:16.568Z,16.65
2022-10-31T03:01:34.301Z,16.62
2022-10-31T03:04:34.895Z,16.64
2022-10-31T03:07:17.334Z,16.65
2022-10-31T03:09:44.365Z,16.67
2022-10-31T03:12:19.647Z,16.64
2022-10-31T03:15:05.341Z,16.63
2022-10-31T03:17:39.502Z,16.62
2022-10-31T03:20:10.683Z,16.60
2022-10-31T03:22:42.948Z,16.53
2022-10-31T03:25:10.927Z,16.53
2022-10-31T03:27:40.621Z,16.59
2022-10-31T03:30:09.125Z,16.60
2022-10-31T03:32:55.610Z,16.60
2022-10-31T03:35:27.053Z,16.60
2022-10-31T03:37:55.519Z,16.61
2022-10-31T03:40:28.111Z,16.64
2022-10-31T03:43:04.888Z,16.69
2022-10-31T03:45:37.038Z,16.74
2022-10-31T03:48:05.024Z,16.74
2022-10-31T03:50:51.000Z,16.78
2022-10-31T03:53:27.891Z,16.75
2022-10-31T03:56:09.064Z,16.77
2022-10-31T03:58:43.683Z,16.77
2022-10-31T04:01:15.284Z,16.69
2022-10-31T04:03:43.916Z,16.60
2022-10-31T04:06:16.065Z,16.58
2022-10-31T04:08:49.280Z,16.60
2022-10-31T04:11:22.256Z,16.58
2022-10-31T04:14:08.273Z,16.60
2022-10-31T04:16:36.839Z,16.64
2022-10-31T04:19:04.282Z,16.67
2022-10-31T04:21:32.108Z,16.72
2022-10-31T04:23:59.349Z,16.72
2022-10-31T04:26:28.752Z,16.70
2022-10-31T04:28:59.691Z,16.72
2022-10-31T04:31:28.742Z,16.73
2022-10-31T04:33:56.159Z,16.72
2022-10-31T04:36:23.790Z,16.67
2022-10-31T04:38:50.841Z,16.59
2022-10-31T04:41:32.441Z,16.54
2022-10-31T04:44:02.611Z,16.50
2022-10-31T04:46:29.758Z,16.46
2022-10-31T04:48:58.387Z,16.45
2022-10-31T04:51:25.537Z,16.42
2022-10-31T04:53:53.101Z,16.38
2022-10-31T04:56:29.572Z,16.37
2022-10-31T04:58:59.964Z,16.34
2022-10-31T05:01:30.558Z,16.29
2022-10-31T05:03:59.892Z,16.27
2022-10-31T05:06:27.267Z,16.27
2022-10-31T05:08:55.092Z,16.25
2022-10-31T05:11:25.300Z,16.22
2022-10-31T05:13:56.005Z,16.20
2022-10-31T05:16:41.902Z,16.18
2022-10-31T05:19:37.899Z,16.18
2022-10-31T05:22:25.302Z,16.19
2022-10-31T05:24:52.481Z,16.17
2022-10-31T05:27:19.612Z,16.20
2022-10-31T05:29:46.772Z,16.30
2022-10-31T05:32:14.448Z,16.49
2022-10-31T05:35:00.155Z,16.83
2022-10-31T05:37:47.756Z,17.27
2022-10-31T05:40:17.191Z,17.74
2022-10-31T05:42:45.251Z,18.21
2022-10-31T05:45:16.473Z,18.66
2022-10-31T05:48:02.642Z,19.24
2022-10-31T05:51:05.580Z,19.98
2022-10-31T05:53:32.682Z,20.49
2022-10-31T05:56:00.089Z,21.06
2022-10-31T05:58:27.238Z,21.59
2022-10-31T06:01:06.962Z,22.04
2022-10-31T06:03:34.414Z,22.40
2022-10-31T06:06:04.399Z,22.63
2022-10-31T06:08:36.938Z,22.90
2022-10-31T06:11:07.700Z,23.27
2022-10-31T06:13:53.678Z,23.73
2022-10-31T06:16:25.222Z,24.21
2022-10-31T06:18:54.903Z,24.64
2022-10-31T06:21:22.684Z,24.65
2022-10-31T06:23:52.120Z,24.36
2022-10-31T06:26:37.671Z,23.72
2022-10-31T06:29:07.164Z,23.05
2022-10-31T06:31:56.425Z,22.41
2022-10-31T06:34:23.821Z,21.91
2022-10-31T06:36:50.955Z,21.54
2022-10-31T06:39:21.857Z,21.28
2022-10-31T06:41:49.587Z,21.05
2022-10-31T06:44:19.991Z,20.89
2022-10-31T06:46:56.690Z,20.88
2022-10-31T06:49:43.531Z,20.83
2022-10-31T06:52:16.408Z,20.81
2022-10-31T06:54:43.538Z,20.87
2022-10-31T06:57:10.636Z,20.91
2022-10-31T06:59:39.421Z,20.97
2022-10-31T07:02:12.729Z,21.03
2022-10-31T07:04:42.693Z,21.17
2022-10-31T07:07:13.325Z,21.22
2022-10-31T07:09:40.466Z,21.22
2022-10-31T07:12:10.037Z,21.25
2022-10-31T07:14:40.734Z,21.27
2022-10-31T07:17:07.966Z,21.25
2022-10-31T07:19:39.679Z,21.21
2022-10-31T07:22:06.951Z,21.18
2022-10-31T07:24:35.330Z,21.23
2022-10-31T07:27:21.239Z,21.34
2022-10-31T07:29:49.292Z,21.40
2022-10-31T07:32:17.532Z,21.50
2022-10-31T07:34:52.088Z,21.52
2022-10-31T07:37:24.307Z,21.58
2022-10-31T07:39:54.561Z,21.65
2022-10-31T07:42:21.739Z,21.68
2022-10-31T07:44:52.649Z,21.72
2022-10-31T07:47:50.916Z,21.78
2022-10-31T07:50:36.668Z,21.93
2022-10-31T07:53:22.141Z,22.04
2022-10-31T07:56:01.816Z,22.07
2022-10-31T07:58:30.700Z,22.05
2022-10-31T08:00:59.805Z,22.13
2022-10-31T08:03:35.124Z,22.21
2022-10-31T08:06:20.900Z,22.34
2022-10-31T08:09:11.540Z,22.45
2022-10-31T08:11:39.612Z,22.52
2022-10-31T08:14:07.544Z,22.61
2022-10-31T08:16:35.233Z,22.66
2022-10-31T08:19:04.882Z,22.76
2022-10-31T08:21:37.666Z,22.84
2022-10-31T08:24:06.252Z,22.95
2022-10-31T08:26:34.002Z,23.08
2022-10-31T08:29:01.564Z,23.05
2022-10-31T08:31:34.479Z,23.12
2022-10-31T08:34:41.888Z,23.41
2022-10-31T08:37:27.468Z,23.54
2022-10-31T08:39:56.163Z,23.44
2022-10-31T08:42:23.253Z,23.50
2022-10-31T08:44:50.559Z,23.61
2022-10-31T08:47:21.526Z,23.61
2022-10-31T08:49:48.915Z,23.54
2022-10-31T08:52:17.162Z,23.51
2022-10-31T08:54:47.185Z,23.59
2022-10-31T08:57:33.005Z,23.73
2022-10-31T09:00:03.265Z,23.80
2022-10-31T09:02:47.543Z,23.71
2022-10-31T09:05:15.233Z,23.61
2022-10-31T09:07:42.255Z,23.45
2022-10-31T09:10:09.594Z,23.72
2022-10-31T09:12:38.765Z,23.91
2022-10-31T09:15:07.642Z,23.72
2022-10-31T09:17:39.951Z,23.73
2022-10-31T09:20:22.857Z,23.82
2022-10-31T09:23:03.069Z,23.86
2022-10-31T09:25:32.115Z,23.75
2022-10-31T09:28:20.049Z,24.04
2022-10-31T09:30:49.494Z,24.06
2022-10-31T09:33:23.769Z,24.19
2022-10-31T09:36:08.697Z,24.41
2022-10-31T09:38:40.831Z,24.49
2022-10-31T09:41:26.507Z,24.55
2022-10-31T09:43:53.768Z,24.40
2022-10-31T09:46:49.668Z,24.41
2022-10-31T09:49:34.285Z,24.62
2022-10-31T09:52:18.435Z,24.90
2022-10-31T09:54:55.068Z,25.15
2022-10-31T09:57:32.192Z,25.20
2022-10-31T10:00:00.652Z,25.20
2022-10-31T10:02:44.439Z,25.19
2022-10-31T10:05:16.187Z,25.15
2022-10-31T10:08:04.730Z,25.03
2022-10-31T10:11:01.094Z,25.19
2022-10-31T10:14:36.346Z,25.10
2022-10-31T10:17:03.414Z,24.98
2022-10-31T10:19:33.582Z,24.70
2022-10-31T10:22:13.449Z,24.83
2022-10-31T10:25:10.989Z,24.78
2022-10-31T10:27:38.629Z,24.64
2022-10-31T10:30:20.462Z,24.29
2022-10-31T10:33:00.676Z,24.19
2022-10-31T10:35:35.100Z,24.31
2022-10-31T10:38:11.038Z,24.29
2022-10-31T10:40:39.438Z,24.33
2022-10-31T10:43:24.964Z,24.43
2022-10-31T10:46:28.345Z,24.40
2022-10-31T10:49:08.360Z,24.28
2022-10-31T10:52:13.320Z,24.20
2022-10-31T10:54:48.046Z,24.14
2022-10-31T10:57:35.920Z,24.16
2022-10-31T11:00:23.906Z,23.98
2022-10-31T11:02:52.362Z,23.95
2022-10-31T11:05:38.500Z,23.76
2022-10-31T11:08:07.289Z,23.59
2022-10-31T11:10:35.161Z,23.46
2022-10-31T11:13:11.709Z,23.50
2022-10-31T11:15:52.655Z,23.29
2022-10-31T11:21:01.880Z,23.17
2022-10-31T11:23:30.358Z,23.08
2022-10-31T11:26:04.961Z,23.14
2022-10-31T11:28:36.047Z,23.20
2022-10-31T11:31:14.711Z,23.15
2022-10-31T11:33:49.406Z,22.99
2022-10-31T11:36:24.555Z,22.83
2022-10-31T11:38:53.014Z,22.71
2022-10-31T11:41:27.966Z,22.75
2022-10-31T11:43:57.688Z,23.07
2022-10-31T11:46:39.608Z,23.32
2022-10-31T11:49:19.112Z,23.46
2022-10-31T11:51:54.379Z,23.49
2022-10-31T11:54:48.881Z,23.49
2022-10-31T11:57:30.931Z,23.57
2022-10-31T12:00:03.132Z,23.42
2022-10-31T12:02:39.674Z,23.52
2022-10-31T12:05:34.254Z,23.20
2022-10-31T12:08:04.507Z,23.11
2022-10-31T12:10:50.334Z,23.15
2022-10-31T12:13:20.935Z,23.37
2022-10-31T12:15:57.498Z,23.59
2022-10-31T12:18:49.725Z,23.65
2022-10-31T12:21:35.293Z,23.64
2022-10-31T12:24:24.254Z,23.50
2022-10-31T12:27:22.463Z,23.50
2022-10-31T12:30:22.303Z,23.15
2022-10-31T12:33:10.179Z,23.12
2022-10-31T12:38:18.087Z,23.45
2022-10-31T12:41:00.528Z,23.51
2022-10-31T12:44:06.042Z,23.40
2022-10-31T12:46:42.382Z,23.32
2022-10-31T12:49:46.676Z,23.49
2022-10-31T12:52:44.823Z,23.53
2022-10-31T12:55:47.387Z,23.52
2022-10-31T12:58:14.730Z,23.48
2022-10-31T13:00:47.496Z,23.62
2022-10-31T13:03:30.152Z,23.62
2022-10-31T13:06:03.767Z,23.35
2022-10-31T13:08:47.095Z,23.30
2022-10-31T13:11:17.278Z,23.38
2022-10-31T13:13:47.118Z,23.29
2022-10-31T13:16:14.272Z,23.36
2022-10-31T13:18:47.884Z,23.59
2022-10-31T13:21:50.321Z,23.52
2022-10-31T13:24:28.340Z,23.26
2022-10-31T13:26:59.817Z,23.21
2022-10-31T13:29:38.169Z,23.21
2022-10-31T13:32:07.004Z,23.32
2022-10-31T13:34:41.541Z,23.34
2022-10-31T13:37:36.903Z,23.33
2022-10-31T13:40:08.990Z,23.18
2022-10-31T13:42:37.093Z,23.14
2022-10-31T13:45:16.209Z,23.15
2022-10-31T13:47:44.515Z,23.26
2022-10-31T13:50:22.780Z,23.27
2022-10-31T13:52:50.024Z,23.29
2022-10-31T13:55:45.454Z,23.03
2022-10-31T13:58:23.881Z,23.02
2022-10-31T14:01:06.359Z,23.07
2022-10-31T14:04:04.640Z,23.15
2022-10-31T14:06:26.317Z,23.23
2022-10-31T14:08:53.861Z,23.25
2022-10-31T14:11:33.012Z,23.20
2022-10-31T14:14:03.635Z,23.21
2022-10-31T14:16:33.149Z,23.19
2022-10-31T14:19:02.772Z,23.24
2022-10-31T14:21:32.563Z,23.20
2022-10-31T14:23:59.662Z,23.16
2022-10-31T14:26:29.887Z,23.29
2022-10-31T14:29:04.519Z,23.32
2022-10-31T14:31:44.651Z,23.32
2022-10-31T14:34:36.713Z,23.29
2022-10-31T14:37:54.973Z,23.20
2022-10-31T14:41:13.317Z,23.18
2022-10-31T14:43:48.012Z,23.03
2022-10-31T14:46:44.315Z,22.94
2022-10-31T14:49:20.265Z,22.83
2022-10-31T14:51:49.911Z,22.80
2022-10-31T14:54:24.620Z,22.74
2022-10-31T14:56:56.533Z,22.69
2022-10-31T14:59:34.476Z,22.71
2022-10-31T15:02:22.495Z,22.64
2022-10-31T15:04:52.428Z,22.54
2022-10-31T15:07:27.660Z,22.54
2022-10-31T15:10:28.479Z,22.53
2022-10-31T15:12:55.850Z,22.48
2022-10-31T15:15:30.031Z,22.51
2022-10-31T15:18:00.735Z,22.47
2022-10-31T15:20:31.731Z,22.44
2022-10-31T15:23:01.024Z,22.43
2022-10-31T15:25:34.055Z,22.40
2022-10-31T15:28:01.634Z,22.35
2022-10-31T15:30:30.962Z,22.27
2022-10-31T15:32:59.370Z,22.27
2022-10-31T15:35:32.000Z,22.24
2022-10-31T15:38:01.793Z,22.19
2022-10-31T15:40:29.666Z,22.09
2022-10-31T15:43:03.253Z,21.98
2022-10-31T15:45:31.726Z,21.91
2022-10-31T15:48:02.619Z,21.86
2022-10-31T15:50:39.098Z,21.90
2022-10-31T15:53:18.630Z,21.81
2022-10-31T15:55:58.907Z,21.73
2022-10-31T15:58:27.265Z,21.66
2022-10-31T16:01:07.153Z,21.63
2022-10-31T16:03:35.777Z,21.60
2022-10-31T16:06:06.375Z,21.56
2022-10-31T16:08:37.147Z,21.50
2022-10-31T16:11:15.974Z,21.50
2022-10-31T16:13:59.833Z,21.47
2022-10-31T16:16:35.261Z,21.37
2022-10-31T16:19:05.594Z,21.29
2022-10-31T16:21:37.452Z,21.25
2022-10-31T16:24:15.078Z,21.25
2022-10-31T16:26:42.829Z,21.27
2022-10-31T16:29:42.671Z,21.21
2022-10-31T16:32:26.124Z,21.18
2022-10-31T16:35:11.213Z,21.16
2022-10-31T16:37:42.269Z,21.15
2022-10-31T16:40:17.087Z,21.08
2022-10-31T16:42:46.028Z,20.99
2022-10-31T16:45:24.723Z,20.88
2022-10-31T16:47:52.770Z,20.85
2022-10-31T16:50:23.854Z,20.83
2022-10-31T16:53:08.771Z,20.76
2022-10-31T16:55:47.419Z,20.70
2022-10-31T16:58:24.303Z,20.70
2022-10-31T17:00:52.807Z,20.68
2022-10-31T17:03:20.768Z,20.64
2022-10-31T17:05:48.037Z,20.61
2022-10-31T17:08:15.351Z,20.63
2022-10-31T17:10:44.963Z,20.60
2022-10-31T17:13:18.040Z,20.60
2022-10-31T17:15:48.496Z,20.56
2022-10-31T17:18:16.971Z,20.59
2022-10-31T17:20:45.182Z,20.64
2022-10-31T17:23:14.532Z,20.66
2022-10-31T17:25:42.130Z,20.67
2022-10-31T17:28:13.874Z,20.69
2022-10-31T17:30:42.579Z,20.68
2022-10-31T17:33:13.059Z,20.67
2022-10-31T17:35:40.436Z,20.64
2022-10-31T17:38:07.623Z,20.59
2022-10-31T17:40:34.841Z,20.59
2022-10-31T17:43:03.982Z,20.58
2022-10-31T17:45:32.758Z,20.54
2022-10-31T17:48:00.179Z,20.47
2022-10-31T17:50:27.811Z,20.41
2022-10-31T17:52:54.871Z,20.36
2022-10-31T17:55:22.046Z,20.31
2022-10-31T17:57:49.355Z,20.29
2022-10-31T18:00:22.781Z,20.17
2022-10-31T18:02:50.411Z,20.26
2022-10-31T18:05:18.002Z,20.28
2022-10-31T18:07:45.707Z,20.28
2022-10-31T18:10:12.831Z,20.27
2022-10-31T18:12:44.130Z,20.28
2022-10-31T18:15:15.053Z,20.29
2022-10-31T18:17:44.097Z,20.24
2022-10-31T18:20:12.885Z,20.25
2022-10-31T18:22:40.063Z,20.25
2022-10-31T18:25:08.845Z,20.24
2022-10-31T18:27:36.885Z,20.22
2022-10-31T18:30:04.428Z,20.17
2022-10-31T18:32:31.542Z,20.10
2022-10-31T18:34:58.528Z,20.04
2022-10-31T18:37:25.644Z,20.00
2022-10-31T18:39:52.636Z,19.97
2022-10-31T18:42:19.815Z,19.94
2022-10-31T18:44:46.844Z,19.92
2022-10-31T18:47:13.988Z,19.96
2022-10-31T18:49:43.591Z,19.97
2022-10-31T18:52:11.836Z,19.96
2022-10-31T18:54:38.967Z,19.97
2022-10-31T18:57:08.856Z,20.02
2022-10-31T18:59:38.416Z,20.06
2022-10-31T19:02:05.834Z,20.05
2022-10-31T19:04:33.118Z,20.00
2022-10-31T19:07:00.818Z,19.92
2022-10-31T19:09:30.959Z,19.87
2022-10-31T19:11:58.038Z,19.83
2022-10-31T19:14:25.167Z,19.79
2022-10-31T19:16:53.013Z,19.77
2022-10-31T19:19:21.159Z,19.76
2022-10-31T19:21:48.418Z,19.74
2022-10-31T19:24:15.941Z,19.79
2022-10-31T19:26:43.206Z,19.80
2022-10-31T19:29:10.823Z,19.81
2022-10-31T19:31:37.929Z,19.80
2022-10-31T19:34:05.303Z,19.76
2022-10-31T19:36:32.663Z,19.70
2022-10-31T19:39:00.060Z,19.63
2022-10-31T19:41:31.928Z,19.59
2022-10-31T19:44:00.481Z,19.56
2022-10-31T19:46:51.707Z,19.61
2022-10-31T19:49:15.581Z,19.61
2022-10-31T19:51:45.679Z,19.62
2022-10-31T19:54:15.016Z,19.60
2022-10-31T19:56:42.252Z,19.54
2022-10-31T19:59:09.555Z,19.59
2022-10-31T20:01:36.945Z,19.70
2022-10-31T20:04:04.236Z,19.73
2022-10-31T20:06:36.794Z,19.79
2022-10-31T20:09:08.118Z,19.74
2022-10-31T20:11:37.323Z,19.63
2022-10-31T20:14:04.882Z,19.54
2022-10-31T20:16:32.820Z,19.46
2022-10-31T20:19:00.265Z,19.38
2022-10-31T20:21:29.358Z,19.33
2022-10-31T20:24:01.596Z,19.29
2022-10-31T20:26:30.382Z,19.26
2022-10-31T20:28:58.583Z,19.25
2022-10-31T20:31:30.222Z,19.18
2022-10-31T20:33:57.680Z,19.15
2022-10-31T20:36:25.507Z,19.11
2022-10-31T20:38:52.920Z,19.10
2022-10-31T20:41:20.202Z,19.11
2022-10-31T20:43:47.983Z,19.11
2022-10-31T20:46:17.489Z,19.13
2022-10-31T20:48:48.728Z,19.16
2022-10-31T20:51:27.681Z,19.16
2022-10-31T20:53:56.828Z,19.11
2022-10-31T20:56:26.038Z,19.07
2022-10-31T20:58:55.491Z,19.04
2022-10-31T21:01:31.334Z,19.02
2022-10-31T21:03:59.198Z,19.00
2022-10-31T21:06:27.327Z,18.96
2022-10-31T21:08:55.209Z,18.89
2022-10-31T21:11:24.765Z,18.82
2022-10-31T21:13:52.614Z,18.78
2022-10-31T21:16:25.427Z,18.76
2022-10-31T21:18:53.875Z,18.76
2022-10-31T21:21:29.124Z,18.73
2022-10-31T21:24:12.453Z,18.73
2022-10-31T21:26:42.835Z,18.71
2022-10-31T21:29:11.894Z,18.77
2022-10-31T21:31:39.747Z,18.81
2022-10-31T21:34:07.097Z,18.80
2022-10-31T21:36:35.023Z,18.78
2022-10-31T21:39:03.154Z,18.76
2022-10-31T21:41:30.285Z,18.72
2022-10-31T21:43:57.762Z,18.72
2022-10-31T21:46:30.643Z,18.76
2022-10-31T21:48:58.584Z,18.82
2022-10-31T21:51:33.442Z,18.85
2022-10-31T21:54:19.342Z,18.87
2022-10-31T21:56:46.518Z,18.84
2022-10-31T21:59:13.932Z,18.80
2022-10-31T22:01:41.546Z,18.75
2022-10-31T22:04:09.008Z,18.73
2022-10-31T22:06:36.652Z,18.72
2022-10-31T22:09:06.205Z,18.70
2022-10-31T22:11:34.551Z,18.69
2022-10-31T22:14:02.209Z,18.70
2022-10-31T22:16:30.873Z,18.71
2022-10-31T22:18:59.580Z,18.67
2022-10-31T22:21:28.494Z,18.65
2022-10-31T22:24:01.913Z,18.62
2022-10-31T22:26:32.930Z,18.62
2022-10-31T22:29:03.291Z,18.61
2022-10-31T22:31:31.943Z,18.57
2022-10-31T22:33:59.763Z,18.58
2022-10-31T22:36:29.322Z,18.59
2022-10-31T22:38:57.298Z,18.56
2022-10-31T22:41:29.740Z,18.54
2022-10-31T22:43:57.804Z,18.54
2022-10-31T22:46:30.048Z,18.55
2022-10-31T22:49:03.055Z,18.54
2022-10-31T22:51:33.211Z,18.51
2022-10-31T22:54:00.635Z,18.49
2022-10-31T22:56:30.477Z,18.47
2022-10-31T22:58:58.988Z,18.45
2022-10-31T23:01:32.276Z,18.43
2022-10-31T23:04:00.553Z,18.43
2022-10-31T23:06:32.807Z,18.43
2022-10-31T23:09:01.724Z,18.40
2022-10-31T23:11:37.467Z,18.38
2022-10-31T23:14:16.536Z,18.38
2022-10-31T23:16:46.821Z,18.36
2022-10-31T23:19:22.166Z,18.36
2022-10-31T23:21:56.674Z,18.35
2022-10-31T23:24:32.119Z,18.32
2022-10-31T23:27:09.940Z,18.30
2022-10-31T23:29:54.485Z,18.28
2022-10-31T23:32:30.890Z,18.25
2022-10-31T23:35:03.175Z,18.25
2022-10-31T23:37:32.183Z,18.23
2022-10-31T23:39:59.838Z,18.24
2022-10-31T23:42:27.984Z,18.22
2022-10-31T23:44:55.481Z,18.19
2022-10-31T23:47:22.825Z,18.16
2022-10-31T23:49:51.027Z,18.14
2022-10-31T23:52:18.462Z,18.11
2022-10-31T23:54:45.604Z,18.15
2022-10-31T23:57:13.960Z,18.14
2022-10-31T23:59:41.167Z,18.14
